createdAt,value
2019-06-27T00:00:05.526Z,25.30
2019-06-27T00:01:08.298Z,25.30
2019-06-27T00:02:10.486Z,25.20
2019-06-27T00:03:05.483Z,25.20
2019-06-27T00:04:08.151Z,25.20
2019-06-27T00:05:05.211Z,25.20
2019-06-27T00:06:05.494Z,25.30
2019-06-27T00:07:08.127Z,25.20
2019-06-27T00:08:05.282Z,25.20
2019-06-27T00:09:08.112Z,25.20
2019-06-27T00:10:07.662Z,25.20
2019-06-27T00:11:08.204Z,25.20
2019-06-27T00:12:07.934Z,25.10
2019-06-27T00:13:05.006Z,25.10
2019-06-27T00:14:07.756Z,25.10
2019-06-27T00:15:04.734Z,25.10
2019-06-27T00:16:07.409Z,25.00
2019-06-27T00:17:05.402Z,25.00
2019-06-27T00:18:05.660Z,25.00
2019-06-27T00:19:04.882Z,25.00
2019-06-27T00:20:07.543Z,25.00
2019-06-27T00:21:08.074Z,25.00
2019-06-27T00:22:05.261Z,25.00
2019-06-27T00:23:05.404Z,25.00
2019-06-27T00:24:05.530Z,25.00
2019-06-27T00:25:08.171Z,25.00
2019-06-27T00:26:07.689Z,25.00
2019-06-27T00:27:08.276Z,25.00
2019-06-27T00:28:05.339Z,25.00
2019-06-27T00:29:05.465Z,25.00
2019-06-27T00:30:12.906Z,25.00
2019-06-27T00:31:08.060Z,25.00
2019-06-27T00:32:08.107Z,25.00
2019-06-27T00:33:07.575Z,25.00
2019-06-27T00:34:05.595Z,25.00
2019-06-27T00:35:04.729Z,24.90
2019-06-27T00:36:07.729Z,25.00
2019-06-27T00:37:04.702Z,24.90
2019-06-27T00:38:12.384Z,24.90
2019-06-27T00:39:05.400Z,24.90
2019-06-27T00:40:08.068Z,24.80
2019-06-27T00:41:05.007Z,24.90
2019-06-27T00:42:05.156Z,24.80
2019-06-27T00:43:05.428Z,24.80
2019-06-27T00:44:05.652Z,24.80
2019-06-27T00:45:04.731Z,24.80
2019-06-27T00:46:07.331Z,24.80
2019-06-27T00:47:05.238Z,24.80
2019-06-27T00:48:07.872Z,24.80
2019-06-27T00:49:07.359Z,24.70
2019-06-27T00:50:05.416Z,24.70
2019-06-27T00:51:05.156Z,24.70
2019-06-27T00:52:05.405Z,24.70
2019-06-27T00:53:05.479Z,24.70
2019-06-27T00:54:08.071Z,24.70
2019-06-27T00:55:07.582Z,24.60
2019-06-27T00:56:05.568Z,24.60
2019-06-27T00:57:13.787Z,24.60
2019-06-27T00:58:05.019Z,24.60
2019-06-27T00:59:07.732Z,24.60
2019-06-27T01:00:07.200Z,24.60
2019-06-27T01:01:07.842Z,24.60
2019-06-27T01:02:04.999Z,24.60
2019-06-27T01:03:05.147Z,24.60
2019-06-27T01:04:07.815Z,24.50
2019-06-27T01:05:04.847Z,24.50
2019-06-27T01:06:07.502Z,24.50
2019-06-27T01:07:05.417Z,24.50
2019-06-27T01:08:05.515Z,24.40
2019-06-27T01:09:08.306Z,24.40
2019-06-27T01:10:07.854Z,24.40
2019-06-27T01:11:04.803Z,24.40
2019-06-27T01:12:04.991Z,24.40
2019-06-27T01:13:05.281Z,24.30
2019-06-27T01:14:08.083Z,24.30
2019-06-27T01:15:05.169Z,24.30
2019-06-27T01:16:07.911Z,24.20
2019-06-27T01:17:04.881Z,24.20
2019-06-27T01:18:05.037Z,24.20
2019-06-27T01:19:05.174Z,24.10
2019-06-27T01:20:05.308Z,24.10
2019-06-27T01:21:05.538Z,24.00
2019-06-27T01:22:07.352Z,24.00
2019-06-27T01:23:05.432Z,24.00
2019-06-27T01:24:08.221Z,24.00
2019-06-27T01:25:08.051Z,23.90
2019-06-27T01:26:05.048Z,23.90
2019-06-27T01:27:08.004Z,23.90
2019-06-27T01:28:05.045Z,20.60
2019-06-27T01:29:07.640Z,23.80
2019-06-27T01:30:05.643Z,23.80
2019-06-27T01:31:10.013Z,23.80
2019-06-27T01:32:05.091Z,23.80
2019-06-27T01:33:05.277Z,23.80
2019-06-27T01:34:07.999Z,23.80
2019-06-27T01:35:07.668Z,23.80
2019-06-27T01:36:10.841Z,23.70
2019-06-27T01:37:07.362Z,23.70
2019-06-27T01:38:05.325Z,23.70
2019-06-27T01:39:05.434Z,23.70
2019-06-27T01:40:05.530Z,23.70
2019-06-27T01:41:07.265Z,23.60
2019-06-27T01:42:05.384Z,23.70
2019-06-27T01:43:05.548Z,23.60
2019-06-27T01:44:05.622Z,23.60
2019-06-27T01:45:04.740Z,23.70
2019-06-27T01:46:04.971Z,23.60
2019-06-27T01:47:10.348Z,23.70
2019-06-27T01:48:07.967Z,23.60
2019-06-27T01:49:05.050Z,23.60
2019-06-27T01:50:07.758Z,23.60
2019-06-27T01:51:07.258Z,23.50
2019-06-27T01:52:07.864Z,23.60
2019-06-27T01:53:09.875Z,23.50
2019-06-27T01:54:07.338Z,23.50
2019-06-27T01:55:05.316Z,23.50
2019-06-27T01:56:05.390Z,23.60
2019-06-27T01:57:10.635Z,23.50
2019-06-27T01:58:08.246Z,23.50
2019-06-27T01:59:05.221Z,23.40
2019-06-27T02:00:05.331Z,23.50
2019-06-27T02:01:05.508Z,23.50
2019-06-27T02:02:04.682Z,23.50
2019-06-27T02:03:04.938Z,23.40
2019-06-27T02:04:04.981Z,23.40
2019-06-27T02:05:05.149Z,23.40
2019-06-27T02:06:05.191Z,23.40
2019-06-27T02:07:07.882Z,23.40
2019-06-27T02:08:07.472Z,23.40
2019-06-27T02:09:05.427Z,23.40
2019-06-27T02:10:05.570Z,23.40
2019-06-27T02:11:04.678Z,23.40
2019-06-27T02:12:04.772Z,23.40
2019-06-27T02:13:07.473Z,23.40
2019-06-27T02:14:05.531Z,23.40
2019-06-27T02:15:08.176Z,23.50
2019-06-27T02:16:07.921Z,23.40
2019-06-27T02:17:05.111Z,23.50
2019-06-27T02:18:05.214Z,23.50
2019-06-27T02:19:05.365Z,23.50
2019-06-27T02:20:08.027Z,23.40
2019-06-27T02:21:10.082Z,23.40
2019-06-27T02:22:07.584Z,23.40
2019-06-27T02:23:05.521Z,23.40
2019-06-27T02:24:05.630Z,23.40
2019-06-27T02:25:04.823Z,23.40
2019-06-27T02:26:04.940Z,23.40
2019-06-27T02:27:10.136Z,23.40
2019-06-27T02:28:05.110Z,23.40
2019-06-27T02:29:05.305Z,23.40
2019-06-27T02:30:05.495Z,23.40
2019-06-27T02:31:05.685Z,23.40
2019-06-27T02:32:04.887Z,23.40
2019-06-27T02:33:05.216Z,23.40
2019-06-27T02:34:06.981Z,23.40
2019-06-27T02:35:05.468Z,23.40
2019-06-27T02:36:08.153Z,23.40
2019-06-27T02:37:07.678Z,23.30
2019-06-27T02:38:07.244Z,23.30
2019-06-27T02:39:07.952Z,23.30
2019-06-27T02:40:04.975Z,23.30
2019-06-27T02:41:05.125Z,23.20
2019-06-27T02:42:07.720Z,23.20
2019-06-27T02:43:04.699Z,23.20
2019-06-27T02:44:04.890Z,23.20
2019-06-27T02:45:05.013Z,23.20
2019-06-27T02:46:08.225Z,23.20
2019-06-27T02:47:05.412Z,23.10
2019-06-27T02:48:05.597Z,23.10
2019-06-27T02:49:04.833Z,23.10
2019-06-27T02:50:04.916Z,23.10
2019-06-27T02:51:05.060Z,23.10
2019-06-27T02:52:07.841Z,23.10
2019-06-27T02:53:12.523Z,23.10
2019-06-27T02:54:05.559Z,23.10
2019-06-27T02:55:07.271Z,23.10
2019-06-27T02:56:05.318Z,23.10
2019-06-27T02:57:05.433Z,23.10
2019-06-27T02:58:27.309Z,23.10
2019-06-27T02:59:04.750Z,23.10
2019-06-27T03:00:07.502Z,23.10
2019-06-27T03:01:08.124Z,23.10
2019-06-27T03:02:05.449Z,23.10
2019-06-27T03:03:12.312Z,23.10
2019-06-27T03:04:05.562Z,23.10
2019-06-27T03:05:04.777Z,23.10
2019-06-27T03:06:04.903Z,23.10
2019-06-27T03:07:05.004Z,23.00
2019-06-27T03:08:07.773Z,23.00
2019-06-27T03:09:07.312Z,23.00
2019-06-27T03:10:05.311Z,23.00
2019-06-27T03:11:05.615Z,23.00
2019-06-27T03:12:07.335Z,23.00
2019-06-27T03:13:08.045Z,23.00
2019-06-27T03:14:05.086Z,23.00
2019-06-27T03:15:05.221Z,23.00
2019-06-27T03:16:07.888Z,22.90
2019-06-27T03:17:07.610Z,22.90
2019-06-27T03:18:04.833Z,22.90
2019-06-27T03:19:07.500Z,22.90
2019-06-27T03:20:05.505Z,22.90
2019-06-27T03:21:05.743Z,22.90
2019-06-27T03:22:05.872Z,22.90
2019-06-27T03:23:08.110Z,22.90
2019-06-27T03:24:10.296Z,22.80
2019-06-27T03:25:07.870Z,22.80
2019-06-27T03:26:07.383Z,22.90
2019-06-27T03:27:05.383Z,22.80
2019-06-27T03:28:05.550Z,22.80
2019-06-27T03:29:04.682Z,22.80
2019-06-27T03:30:04.916Z,22.80
2019-06-27T03:31:07.672Z,22.70
2019-06-27T03:32:07.320Z,22.70
2019-06-27T03:33:05.395Z,22.70
2019-06-27T03:34:13.206Z,22.70
2019-06-27T03:35:05.260Z,22.70
2019-06-27T03:36:05.397Z,22.70
2019-06-27T03:37:05.533Z,22.70
2019-06-27T03:38:04.740Z,22.70
2019-06-27T03:39:04.952Z,22.70
2019-06-27T03:40:07.570Z,22.70
2019-06-27T03:41:05.492Z,22.70
2019-06-27T03:42:05.613Z,22.70
2019-06-27T03:43:04.780Z,22.70
2019-06-27T03:44:07.597Z,22.80
2019-06-27T03:45:05.591Z,22.80
2019-06-27T03:46:07.925Z,22.90
2019-06-27T03:47:07.538Z,22.90
2019-06-27T03:48:04.917Z,22.90
2019-06-27T03:49:05.061Z,23.00
2019-06-27T03:50:10.228Z,23.10
2019-06-27T03:51:05.226Z,23.10
2019-06-27T03:52:05.325Z,23.20
2019-06-27T03:53:07.992Z,23.30
2019-06-27T03:54:07.519Z,23.40
2019-06-27T03:55:05.574Z,23.40
2019-06-27T03:56:04.692Z,23.40
2019-06-27T03:57:04.812Z,23.50
2019-06-27T03:58:04.982Z,23.50
2019-06-27T03:59:11.951Z,23.60
2019-06-27T04:00:04.797Z,23.70
2019-06-27T04:01:07.677Z,23.90
2019-06-27T04:02:04.777Z,23.90
2019-06-27T04:03:07.467Z,24.00
2019-06-27T04:04:05.499Z,24.00
2019-06-27T04:05:07.258Z,24.10
2019-06-27T04:06:08.038Z,24.20
2019-06-27T04:07:07.663Z,24.30
2019-06-27T04:08:05.670Z,24.30
2019-06-27T04:09:04.817Z,24.30
2019-06-27T04:10:07.705Z,24.40
2019-06-27T04:11:04.679Z,24.40
2019-06-27T04:12:04.754Z,24.40
2019-06-27T04:13:07.506Z,24.50
2019-06-27T04:14:05.633Z,24.50
2019-06-27T04:15:07.442Z,24.60
2019-06-27T04:16:08.100Z,24.70
2019-06-27T04:17:07.826Z,24.80
2019-06-27T04:18:07.444Z,24.80
2019-06-27T04:19:05.578Z,24.80
2019-06-27T04:20:04.743Z,24.90
2019-06-27T04:21:04.972Z,25.00
2019-06-27T04:22:05.296Z,25.00
2019-06-27T04:23:05.565Z,25.10
2019-06-27T04:24:04.704Z,25.10
2019-06-27T04:25:07.755Z,25.10
2019-06-27T04:26:04.831Z,25.00
2019-06-27T04:27:05.041Z,25.10
2019-06-27T04:28:05.270Z,25.10
2019-06-27T04:29:05.351Z,25.10
2019-06-27T04:30:08.213Z,25.10
2019-06-27T04:31:05.234Z,25.10
2019-06-27T04:32:05.437Z,25.20
2019-06-27T04:33:08.116Z,25.30
2019-06-27T04:34:05.256Z,25.20
2019-06-27T04:35:05.542Z,25.30
2019-06-27T04:36:04.696Z,25.40
2019-06-27T04:37:04.823Z,25.40
2019-06-27T04:38:07.455Z,25.50
2019-06-27T04:39:08.069Z,25.50
2019-06-27T04:40:05.239Z,25.50
2019-06-27T04:41:08.023Z,25.50
2019-06-27T04:42:07.609Z,25.60
2019-06-27T04:43:06.311Z,25.60
2019-06-27T04:44:08.197Z,25.70
2019-06-27T04:45:07.797Z,25.80
2019-06-27T04:46:07.275Z,25.80
2019-06-27T04:47:07.864Z,25.80
2019-06-27T04:48:05.053Z,25.80
2019-06-27T04:49:05.181Z,25.90
2019-06-27T04:50:07.467Z,26.00
2019-06-27T04:51:05.679Z,26.00
2019-06-27T04:52:07.351Z,26.00
2019-06-27T04:53:07.887Z,26.00
2019-06-27T04:54:07.517Z,26.10
2019-06-27T04:55:05.751Z,26.10
2019-06-27T04:56:07.427Z,26.20
2019-06-27T04:57:05.499Z,26.20
2019-06-27T04:58:05.766Z,26.30
2019-06-27T04:59:05.020Z,26.30
2019-06-27T05:00:07.753Z,26.40
2019-06-27T05:01:07.311Z,26.40
2019-06-27T05:02:05.212Z,26.40
2019-06-27T05:03:07.783Z,26.50
2019-06-27T05:04:09.909Z,26.50
2019-06-27T05:05:12.682Z,26.60
2019-06-27T05:06:04.777Z,26.60
2019-06-27T05:07:05.186Z,26.70
2019-06-27T05:08:14.091Z,26.80
2019-06-27T05:09:07.422Z,26.90
2019-06-27T05:10:05.569Z,26.90
2019-06-27T05:11:07.292Z,26.90
2019-06-27T05:12:10.437Z,26.90
2019-06-27T05:13:07.602Z,27.10
2019-06-27T05:14:10.762Z,27.10
2019-06-27T05:15:04.721Z,27.10
2019-06-27T05:16:07.983Z,27.10
2019-06-27T05:17:05.030Z,27.10
2019-06-27T05:18:05.196Z,27.00
2019-06-27T05:19:13.118Z,26.70
2019-06-27T05:20:07.739Z,26.60
2019-06-27T05:21:07.251Z,26.50
2019-06-27T05:22:05.322Z,26.50
2019-06-27T05:23:05.602Z,26.50
2019-06-27T05:24:07.661Z,26.60
2019-06-27T05:25:05.744Z,26.50
2019-06-27T05:26:07.340Z,26.60
2019-06-27T05:27:05.332Z,26.50
2019-06-27T05:28:08.038Z,26.50
2019-06-27T05:29:07.614Z,26.40
2019-06-27T05:30:09.711Z,26.40
2019-06-27T05:31:08.257Z,26.10
2019-06-27T05:32:05.245Z,26.10
2019-06-27T05:33:05.492Z,26.00
2019-06-27T05:34:08.138Z,25.70
2019-06-27T05:35:07.607Z,25.70
2019-06-27T05:36:05.598Z,25.70
2019-06-27T05:37:07.264Z,25.50
2019-06-27T05:38:05.197Z,25.50
2019-06-27T05:39:05.381Z,25.40
2019-06-27T05:40:08.154Z,25.30
2019-06-27T05:41:07.851Z,25.40
2019-06-27T05:42:04.884Z,25.40
2019-06-27T05:43:05.037Z,25.40
2019-06-27T05:44:05.218Z,25.40
2019-06-27T05:45:05.348Z,25.50
2019-06-27T05:46:07.503Z,25.60
2019-06-27T05:47:05.473Z,25.60
2019-06-27T05:48:08.223Z,25.80
2019-06-27T05:49:05.196Z,25.70
2019-06-27T05:50:07.873Z,25.70
2019-06-27T05:51:04.894Z,25.80
2019-06-27T05:52:04.975Z,25.80
2019-06-27T05:53:12.687Z,25.80
2019-06-27T05:54:08.304Z,25.80
2019-06-27T05:55:05.327Z,25.80
2019-06-27T05:56:07.979Z,25.70
2019-06-27T05:57:05.035Z,25.60
2019-06-27T05:58:05.363Z,25.60
2019-06-27T05:59:13.276Z,25.50
2019-06-27T06:00:26.514Z,25.50
2019-06-27T06:01:07.839Z,25.50
2019-06-27T06:02:04.885Z,25.50
2019-06-27T06:03:04.970Z,25.60
2019-06-27T06:04:05.116Z,25.60
2019-06-27T06:05:07.953Z,25.80
2019-06-27T06:06:05.039Z,25.80
2019-06-27T06:07:07.883Z,25.80
2019-06-27T06:08:04.869Z,25.80
2019-06-27T06:09:05.028Z,25.80
2019-06-27T06:10:05.217Z,25.70
2019-06-27T06:11:05.375Z,25.80
2019-06-27T06:12:07.228Z,26.00
2019-06-27T06:13:07.782Z,26.10
2019-06-27T06:14:07.366Z,26.20
2019-06-27T06:15:05.463Z,26.20
2019-06-27T06:16:05.718Z,26.30
2019-06-27T06:17:07.455Z,26.50
2019-06-27T06:18:05.422Z,26.50
2019-06-27T06:19:05.639Z,26.50
2019-06-27T06:20:04.739Z,26.60
2019-06-27T06:21:07.575Z,26.70
2019-06-27T06:22:05.033Z,26.70
2019-06-27T06:23:05.180Z,26.70
2019-06-27T06:24:05.284Z,26.60
2019-06-27T06:25:07.917Z,26.50
2019-06-27T06:26:04.862Z,26.50
2019-06-27T06:27:05.196Z,26.50
2019-06-27T06:28:05.343Z,26.50
2019-06-27T06:29:07.973Z,26.60
2019-06-27T06:30:05.018Z,26.50
2019-06-27T06:31:05.188Z,26.50
2019-06-27T06:32:05.316Z,26.50
2019-06-27T06:33:08.104Z,26.40
2019-06-27T06:34:05.163Z,26.40
2019-06-27T06:35:08.042Z,26.40
2019-06-27T06:36:05.175Z,26.40
2019-06-27T06:37:08.206Z,26.30
2019-06-27T06:38:05.515Z,26.30
2019-06-27T06:39:05.621Z,26.30
2019-06-27T06:40:07.398Z,26.20
2019-06-27T06:41:05.560Z,26.20
2019-06-27T06:42:09.842Z,26.20
2019-06-27T06:43:07.399Z,26.20
2019-06-27T06:44:08.065Z,26.20
2019-06-27T06:45:05.080Z,26.20
2019-06-27T06:46:05.229Z,26.30
2019-06-27T06:47:05.442Z,26.30
2019-06-27T06:48:08.138Z,26.40
2019-06-27T06:49:05.209Z,26.40
2019-06-27T06:50:13.086Z,26.40
2019-06-27T06:51:07.779Z,26.50
2019-06-27T06:52:07.328Z,26.50
2019-06-27T06:53:05.328Z,26.50
2019-06-27T06:54:05.450Z,26.50
2019-06-27T06:55:05.742Z,26.60
2019-06-27T06:56:04.925Z,26.70
2019-06-27T06:57:07.707Z,26.90
2019-06-27T06:58:04.883Z,26.90
2019-06-27T06:59:12.651Z,27.10
2019-06-27T07:00:05.657Z,27.10
2019-06-27T07:01:04.958Z,27.10
2019-06-27T07:02:07.729Z,27.20
2019-06-27T07:03:04.735Z,27.20
2019-06-27T07:04:04.851Z,27.20
2019-06-27T07:05:07.574Z,27.30
2019-06-27T07:06:05.656Z,27.30
2019-06-27T07:07:04.818Z,27.40
2019-06-27T07:08:05.016Z,27.40
2019-06-27T07:09:05.238Z,27.40
2019-06-27T07:10:08.025Z,27.30
2019-06-27T07:11:07.795Z,27.30
2019-06-27T07:12:05.046Z,27.30
2019-06-27T07:13:05.255Z,27.30
2019-06-27T07:14:05.822Z,27.30
2019-06-27T07:15:05.053Z,27.30
2019-06-27T07:16:05.726Z,27.30
2019-06-27T07:17:04.915Z,27.30
2019-06-27T07:18:05.297Z,27.40
2019-06-27T07:19:05.449Z,27.40
2019-06-27T07:20:05.817Z,27.40
2019-06-27T07:21:07.570Z,27.50
2019-06-27T07:22:05.537Z,27.40
2019-06-27T07:23:04.755Z,27.50
2019-06-27T07:24:05.038Z,27.50
2019-06-27T07:25:05.419Z,27.40
2019-06-27T07:26:05.712Z,27.40
2019-06-27T07:27:04.933Z,27.40
2019-06-27T07:28:07.682Z,27.40
2019-06-27T07:29:10.855Z,27.50
2019-06-27T07:30:07.424Z,27.50
2019-06-27T07:31:17.056Z,27.50
2019-06-27T07:32:07.947Z,27.50
2019-06-27T07:33:05.043Z,27.50
2019-06-27T07:34:07.759Z,27.40
2019-06-27T07:35:04.833Z,27.40
2019-06-27T07:36:04.975Z,27.40
2019-06-27T07:37:05.242Z,27.40
2019-06-27T07:38:05.656Z,27.40
2019-06-27T07:39:04.973Z,27.40
2019-06-27T07:40:05.262Z,27.40
2019-06-27T07:41:05.495Z,27.40
2019-06-27T07:42:04.805Z,27.40
2019-06-27T07:43:07.678Z,27.30
2019-06-27T07:44:04.810Z,27.20
2019-06-27T07:45:05.025Z,27.30
2019-06-27T07:46:05.393Z,27.20
2019-06-27T07:47:05.521Z,27.20
2019-06-27T07:48:04.840Z,27.20
2019-06-27T07:49:07.619Z,27.10
2019-06-27T07:50:10.731Z,27.20
2019-06-27T07:51:07.434Z,27.20
2019-06-27T07:52:05.476Z,27.10
2019-06-27T07:53:08.089Z,27.20
2019-06-27T07:54:05.037Z,27.20
2019-06-27T07:55:05.246Z,27.10
2019-06-27T07:56:07.943Z,27.20
2019-06-27T07:57:05.037Z,27.10
2019-06-27T07:58:05.354Z,27.10
2019-06-27T07:59:05.545Z,27.10
2019-06-27T08:00:05.827Z,27.20
2019-06-27T08:01:05.009Z,27.20
2019-06-27T08:02:05.129Z,27.20
2019-06-27T08:03:05.251Z,27.30
2019-06-27T08:04:05.438Z,27.30
2019-06-27T08:05:08.166Z,27.50
2019-06-27T08:06:05.345Z,27.40
2019-06-27T08:07:05.536Z,27.60
2019-06-27T08:08:05.654Z,27.60
2019-06-27T08:09:04.849Z,27.60
2019-06-27T08:10:07.334Z,27.60
2019-06-27T08:11:05.335Z,27.60
2019-06-27T08:12:05.421Z,27.50
2019-06-27T08:13:05.584Z,27.40
2019-06-27T08:14:04.800Z,27.30
2019-06-27T08:15:05.118Z,27.20
2019-06-27T08:16:07.839Z,27.10
2019-06-27T08:17:04.919Z,27.10
2019-06-27T08:18:05.327Z,27.10
2019-06-27T08:19:05.510Z,27.10
2019-06-27T08:20:10.693Z,27.00
2019-06-27T08:21:10.753Z,27.00
2019-06-27T08:22:04.714Z,27.00
2019-06-27T08:23:07.351Z,27.00
2019-06-27T08:24:07.902Z,27.10
2019-06-27T08:25:04.853Z,27.00
2019-06-27T08:26:05.083Z,27.00
2019-06-27T08:27:05.469Z,27.00
2019-06-27T08:28:07.236Z,26.80
2019-06-27T08:29:05.191Z,26.80
2019-06-27T08:30:08.177Z,26.80
2019-06-27T08:31:04.817Z,26.80
2019-06-27T08:32:04.925Z,26.90
2019-06-27T08:33:04.966Z,26.90
2019-06-27T08:34:05.022Z,26.90
2019-06-27T08:35:07.808Z,27.00
2019-06-27T08:36:04.761Z,27.10
2019-06-27T08:37:07.378Z,27.20
2019-06-27T08:38:07.920Z,27.20
2019-06-27T08:39:07.574Z,27.20
2019-06-27T08:40:05.602Z,27.20
2019-06-27T08:41:04.869Z,27.30
2019-06-27T08:42:05.014Z,27.30
2019-06-27T08:43:05.227Z,27.40
2019-06-27T08:44:05.352Z,27.40
2019-06-27T08:45:05.474Z,27.40
2019-06-27T08:46:05.794Z,27.40
2019-06-27T08:47:09.952Z,27.40
2019-06-27T08:48:05.074Z,27.50
2019-06-27T08:49:05.500Z,27.40
2019-06-27T08:50:04.768Z,27.40
2019-06-27T08:51:05.017Z,27.30
2019-06-27T08:52:05.098Z,27.30
2019-06-27T08:53:07.768Z,27.30
2019-06-27T08:54:04.722Z,27.30
2019-06-27T08:55:07.514Z,27.30
2019-06-27T08:56:08.174Z,27.40
2019-06-27T08:57:05.336Z,27.40
2019-06-27T08:58:05.579Z,27.40
2019-06-27T08:59:07.448Z,27.50
2019-06-27T09:00:13.168Z,27.50
2019-06-27T09:01:07.650Z,27.50
2019-06-27T09:02:13.273Z,27.60
2019-06-27T09:03:07.843Z,27.60
2019-06-27T09:04:04.867Z,27.60
2019-06-27T09:05:04.949Z,27.60
2019-06-27T09:06:05.106Z,27.60
2019-06-27T09:07:05.224Z,27.70
2019-06-27T09:08:05.357Z,27.70
2019-06-27T09:09:05.519Z,27.80
2019-06-27T09:10:04.863Z,27.80
2019-06-27T09:11:05.142Z,27.80
2019-06-27T09:12:07.835Z,27.80
2019-06-27T09:13:07.483Z,27.90
2019-06-27T09:14:05.549Z,27.90
2019-06-27T09:15:05.749Z,28.00
2019-06-27T09:16:07.457Z,28.00
2019-06-27T09:17:08.044Z,28.00
2019-06-27T09:18:07.537Z,27.90
2019-06-27T09:19:05.528Z,27.90
2019-06-27T09:20:05.727Z,27.90
2019-06-27T09:21:07.502Z,27.90
2019-06-27T09:22:05.617Z,27.90
2019-06-27T09:23:05.015Z,27.90
2019-06-27T09:24:05.089Z,27.80
2019-06-27T09:25:05.252Z,27.80
2019-06-27T09:26:08.041Z,27.90
2019-06-27T09:27:05.023Z,27.80
2019-06-27T09:28:05.301Z,27.90
2019-06-27T09:29:08.008Z,27.80
2019-06-27T09:30:04.996Z,27.90
2019-06-27T09:31:10.373Z,27.90
2019-06-27T09:32:20.881Z,27.90
2019-06-27T09:33:04.961Z,27.90
2019-06-27T09:34:07.712Z,28.00
2019-06-27T09:35:04.742Z,27.90
2019-06-27T09:36:05.042Z,28.00
2019-06-27T09:37:05.277Z,28.00
2019-06-27T09:38:05.370Z,28.00
2019-06-27T09:39:08.040Z,28.10
2019-06-27T09:40:05.260Z,28.10
2019-06-27T09:41:08.017Z,28.20
2019-06-27T09:42:04.981Z,28.10
2019-06-27T09:43:07.560Z,28.20
2019-06-27T09:44:05.543Z,28.20
2019-06-27T09:45:12.485Z,28.30
2019-06-27T09:46:08.133Z,28.30
2019-06-27T09:47:07.671Z,28.30
2019-06-27T09:48:08.190Z,28.30
2019-06-27T09:49:07.747Z,28.30
2019-06-27T09:50:04.811Z,28.20
2019-06-27T09:51:07.457Z,28.30
2019-06-27T09:52:05.454Z,28.30
2019-06-27T09:53:10.705Z,28.30
2019-06-27T09:54:04.723Z,28.30
2019-06-27T09:55:09.962Z,28.30
2019-06-27T09:56:05.099Z,28.30
2019-06-27T09:57:05.262Z,28.40
2019-06-27T09:58:05.402Z,28.40
2019-06-27T09:59:05.519Z,28.40
2019-06-27T10:00:04.735Z,28.40
2019-06-27T10:01:05.977Z,28.40
2019-06-27T10:02:07.882Z,28.50
2019-06-27T10:03:07.381Z,28.50
2019-06-27T10:04:05.387Z,28.50
2019-06-27T10:05:05.561Z,28.50
2019-06-27T10:06:04.962Z,28.50
2019-06-27T10:07:05.065Z,28.50
2019-06-27T10:08:05.318Z,28.60
2019-06-27T10:09:05.508Z,28.60
2019-06-27T10:10:04.776Z,28.70
2019-06-27T10:11:07.479Z,28.70
2019-06-27T10:12:08.087Z,28.70
2019-06-27T10:13:07.803Z,28.70
2019-06-27T10:14:04.776Z,28.70
2019-06-27T10:15:07.384Z,28.70
2019-06-27T10:16:08.015Z,28.80
2019-06-27T10:17:07.499Z,28.80
2019-06-27T10:18:08.135Z,28.80
2019-06-27T10:19:05.138Z,28.80
2019-06-27T10:20:05.240Z,28.80
2019-06-27T10:21:08.016Z,28.90
2019-06-27T10:22:05.059Z,28.90
2019-06-27T10:23:05.398Z,28.90
2019-06-27T10:24:08.185Z,28.80
2019-06-27T10:25:05.180Z,28.90
2019-06-27T10:26:05.321Z,28.80
2019-06-27T10:27:05.496Z,28.80
2019-06-27T10:28:08.295Z,28.70
2019-06-27T10:29:07.950Z,28.70
2019-06-27T10:30:05.060Z,28.80
2019-06-27T10:31:07.677Z,28.80
2019-06-27T10:32:04.754Z,28.80
2019-06-27T10:33:07.546Z,28.90
2019-06-27T10:34:08.083Z,29.00
2019-06-27T10:35:07.583Z,29.00
2019-06-27T10:36:08.298Z,29.10
2019-06-27T10:37:05.535Z,29.10
2019-06-27T10:38:07.424Z,29.10
2019-06-27T10:39:07.997Z,29.20
2019-06-27T10:40:05.058Z,29.20
2019-06-27T10:41:05.225Z,29.20
2019-06-27T10:42:05.297Z,29.30
2019-06-27T10:43:05.420Z,29.20
2019-06-27T10:44:05.650Z,29.20
2019-06-27T10:45:07.570Z,29.20
2019-06-27T10:46:08.129Z,29.20
2019-06-27T10:47:07.713Z,29.20
2019-06-27T10:48:07.223Z,29.20
2019-06-27T10:49:10.292Z,29.30
2019-06-27T10:50:05.253Z,29.20
2019-06-27T10:51:05.399Z,29.20
2019-06-27T10:52:05.554Z,29.30
2019-06-27T10:53:05.752Z,29.30
2019-06-27T10:54:04.790Z,29.30
2019-06-27T10:55:04.915Z,29.20
2019-06-27T10:56:05.154Z,29.10
2019-06-27T10:57:05.494Z,29.10
2019-06-27T10:58:05.813Z,29.10
2019-06-27T10:59:07.621Z,29.10
2019-06-27T11:00:05.879Z,29.10
2019-06-27T11:01:05.133Z,29.10
2019-06-27T11:02:05.321Z,29.10
2019-06-27T11:03:15.246Z,29.10
2019-06-27T11:04:04.868Z,29.20
2019-06-27T11:05:07.582Z,29.30
2019-06-27T11:06:05.544Z,29.20
2019-06-27T11:07:08.187Z,29.40
2019-06-27T11:08:07.742Z,29.40
2019-06-27T11:09:07.255Z,29.40
2019-06-27T11:10:05.266Z,29.40
2019-06-27T11:11:08.050Z,29.50
2019-06-27T11:12:05.224Z,29.50
2019-06-27T11:13:05.438Z,29.50
2019-06-27T11:14:05.576Z,29.50
2019-06-27T11:15:09.909Z,29.50
2019-06-27T11:16:05.042Z,29.50
2019-06-27T11:17:07.826Z,29.50
2019-06-27T11:18:05.002Z,29.60
2019-06-27T11:19:05.378Z,29.60
2019-06-27T11:20:05.865Z,29.60
2019-06-27T11:21:05.240Z,29.70
2019-06-27T11:22:05.412Z,29.70
2019-06-27T11:23:05.632Z,29.70
2019-06-27T11:24:04.812Z,29.70
2019-06-27T11:25:05.125Z,29.70
2019-06-27T11:26:08.399Z,29.70
2019-06-27T11:27:05.606Z,29.60
2019-06-27T11:28:10.301Z,29.60
2019-06-27T11:29:05.536Z,29.60
2019-06-27T11:30:07.232Z,29.60
2019-06-27T11:31:05.333Z,29.50
2019-06-27T11:32:08.081Z,29.70
2019-06-27T11:33:05.103Z,29.70
2019-06-27T11:34:05.209Z,29.70
2019-06-27T11:35:05.516Z,29.70
2019-06-27T11:36:04.744Z,29.80
2019-06-27T11:37:05.258Z,29.80
2019-06-27T11:38:05.541Z,29.90
2019-06-27T11:39:07.240Z,29.90
2019-06-27T11:40:05.220Z,29.90
2019-06-27T11:41:05.342Z,29.90
2019-06-27T11:42:05.533Z,29.90
2019-06-27T11:43:05.697Z,29.80
2019-06-27T11:44:04.967Z,29.80
2019-06-27T11:45:05.282Z,29.80
2019-06-27T11:46:08.489Z,29.80
2019-06-27T11:47:07.446Z,29.90
2019-06-27T11:48:05.583Z,29.90
2019-06-27T11:49:04.791Z,29.90
2019-06-27T11:50:05.100Z,29.90
2019-06-27T11:51:07.775Z,30.00
2019-06-27T11:52:07.398Z,30.00
2019-06-27T11:53:05.524Z,30.10
2019-06-27T11:54:07.468Z,30.00
2019-06-27T11:55:05.779Z,30.00
2019-06-27T11:56:05.041Z,30.00
2019-06-27T11:57:05.345Z,30.00
2019-06-27T11:58:05.651Z,30.00
2019-06-27T11:59:07.352Z,30.00
2019-06-27T12:00:05.412Z,30.00
2019-06-27T12:01:08.015Z,30.00
2019-06-27T12:02:05.159Z,30.00
2019-06-27T12:03:05.504Z,30.00
2019-06-27T12:04:08.202Z,30.00
2019-06-27T12:05:05.202Z,30.00
2019-06-27T12:06:05.381Z,30.10
2019-06-27T12:07:05.548Z,30.10
2019-06-27T12:08:10.876Z,30.10
2019-06-27T12:09:05.073Z,30.10
2019-06-27T12:10:12.928Z,30.10
2019-06-27T12:11:05.055Z,30.10
2019-06-27T12:12:07.872Z,30.00
2019-06-27T12:13:04.837Z,30.00
2019-06-27T12:14:05.086Z,29.90
2019-06-27T12:15:05.362Z,29.90
2019-06-27T12:16:05.552Z,29.90
2019-06-27T12:17:04.775Z,29.90
2019-06-27T12:18:04.969Z,29.90
2019-06-27T12:19:08.073Z,29.90
2019-06-27T12:20:05.158Z,29.90
2019-06-27T12:21:10.573Z,29.90
2019-06-27T12:22:04.962Z,29.90
2019-06-27T12:23:05.095Z,29.90
2019-06-27T12:24:05.306Z,29.90
2019-06-27T12:25:08.016Z,29.70
2019-06-27T12:26:05.107Z,29.70
2019-06-27T12:27:05.209Z,29.70
2019-06-27T12:28:05.335Z,29.60
2019-06-27T12:29:05.462Z,29.60
2019-06-27T12:30:08.258Z,29.60
2019-06-27T12:31:19.218Z,29.60
2019-06-27T12:32:07.820Z,29.60
2019-06-27T12:33:04.829Z,29.60
2019-06-27T12:34:07.108Z,29.50
2019-06-27T12:35:07.313Z,29.50
2019-06-27T12:36:05.458Z,29.50
2019-06-27T12:37:04.968Z,29.50
2019-06-27T12:38:05.322Z,29.50
2019-06-27T12:39:08.029Z,29.50
2019-06-27T12:40:07.476Z,29.50
2019-06-27T12:41:05.394Z,29.50
2019-06-27T12:42:05.486Z,29.50
2019-06-27T12:43:08.274Z,29.60
2019-06-27T12:44:07.768Z,29.60
2019-06-27T12:45:04.859Z,29.60
2019-06-27T12:46:05.095Z,29.70
2019-06-27T12:47:07.784Z,29.80
2019-06-27T12:48:06.743Z,29.80
2019-06-27T12:49:04.739Z,29.80
2019-06-27T12:50:04.918Z,29.90
2019-06-27T12:51:04.984Z,29.90
2019-06-27T12:52:07.962Z,29.90